Time;durP1;ratioP1;P1;durP2;ratioP2;P2;SDS_P1;SDS_P2;PMS_P1;PMS_P2;Temp;Humidity;BMP_temperature;BMP_pressure;BME280_temperature;BME280_humidity;BME280_pressure;Samples;Min_cycle;Max_cycle;Signal;HPM_P1;HPM_P2
2023/06/27 00:00:47;;;;;;;7.65;1.88;;;;;;;-142.75;100.00;76593.91;5045429;28;20086;-64
2023/06/27 00:03:13;;;;;;;8.63;1.58;;;;;;;-142.75;100.00;76601.78;5044515;28;20100;-64
2023/06/27 00:05:38;;;;;;;8.68;2.05;;;;;;;-142.75;100.00;76599.81;5045889;28;20523;-64
2023/06/27 00:08:06;;;;;;;9.98;1.80;;;;;;;-142.75;100.00;76607.69;5045611;28;20052;-64
2023/06/27 00:10:32;;;;;;;9.43;1.73;;;;;;;-142.75;100.00;76605.72;5045438;28;20025;-65
2023/06/27 00:12:58;;;;;;;9.73;1.50;;;;;;;-142.75;100.00;76619.50;5045234;28;20039;-64
2023/06/27 00:15:23;;;;;;;8.73;1.88;;;;;;;-142.75;100.00;76617.53;5045213;28;20029;-64
2023/06/27 00:17:51;;;;;;;6.97;1.52;;;;;;;-142.75;100.00;76627.38;5044981;28;20029;-65
2023/06/27 00:20:16;;;;;;;11.00;1.52;;;;;;;-142.75;100.00;76635.25;5045237;28;20033;-64
2023/06/27 00:22:41;;;;;;;6.28;2.03;;;;;;;-142.75;100.00;76629.34;5049795;28;20396;-64
2023/06/27 00:25:09;;;;;;;4.03;1.52;;;;;;;-142.75;100.00;76629.34;5065150;28;20369;-65
2023/06/27 00:27:35;;;;;;;12.65;1.60;;;;;;;-142.75;100.00;76635.25;5063302;28;20021;-64
2023/06/27 00:30:00;;;;;;;5.07;1.48;;;;;;;-142.75;100.00;76633.28;5064645;28;20032;-64
2023/06/27 00:32:26;;;;;;;11.00;1.67;;;;;;;-142.75;100.00;76625.41;5064736;28;20024;-63
2023/06/27 00:34:51;;;;;;;10.63;1.88;;;;;;;-142.75;100.00;76629.34;5065001;28;20407;-64
2023/06/27 00:37:17;;;;;;;13.90;1.83;;;;;;;-142.75;100.00;76639.19;5065352;28;20020;-64
2023/06/27 00:39:42;;;;;;;6.32;1.38;;;;;;;-142.75;100.00;76637.22;5064361;28;20031;-64
2023/06/27 00:42:07;;;;;;;6.30;1.63;;;;;;;-142.75;100.00;76633.28;5064271;28;20055;-64
2023/06/27 00:44:33;;;;;;;3.28;1.33;;;;;;;-142.75;100.00;76637.22;5047093;28;20029;-64
2023/06/27 00:46:59;;;;;;;7.97;1.50;;;;;;;-142.75;100.00;76627.38;5042918;28;20025;-64
2023/06/27 00:49:25;;;;;;;9.20;1.30;;;;;;;-142.75;100.00;76643.13;5043567;28;20036;-65
2023/06/27 00:51:53;;;;;;;6.03;1.60;;;;;;;-142.75;100.00;76652.97;5044815;28;20033;-65
2023/06/27 00:54:18;;;;;;;9.18;1.55;;;;;;;-142.75;100.00;76664.78;5044604;28;20504;-64
2023/06/27 00:56:44;;;;;;;6.47;1.38;;;;;;;-142.75;100.00;76668.72;5043120;28;20098;-64
2023/06/27 00:59:10;;;;;;;7.18;1.70;;;;;;;-142.75;100.00;76680.53;5044478;28;20408;-64
2023/06/27 01:01:36;;;;;;;5.78;1.60;;;;;;;-142.75;100.00;76672.66;5044210;28;20024;-64
2023/06/27 01:04:02;;;;;;;7.38;1.77;;;;;;;-142.75;100.00;76680.53;5044463;28;20104;-64
2023/06/27 01:06:34;;;;;;;8.63;1.50;;;;;;;-142.75;100.00;76676.59;5043712;28;20108;-64
2023/06/27 01:09:22;;;;;;;5.97;1.40;;;;;;;-142.75;100.00;76696.28;5044450;28;20138;-60
2023/06/27 01:11:53;;;;;;;8.55;1.75;;;;;;;-142.75;100.00;76694.31;5039780;28;20443;-64
2023/06/27 01:14:20;;;;;;;9.68;1.10;;;;;;;-142.75;100.00;76700.22;5043991;28;20045;-64
2023/06/27 01:16:47;;;;;;;7.20;1.40;;;;;;;-142.75;100.00;76692.34;5044078;28;20021;-64
2023/06/27 01:19:16;;;;;;;7.72;1.50;;;;;;;-142.75;100.00;76696.28;5044031;28;20729;-64
2023/06/27 01:21:44;;;;;;;5.38;1.38;;;;;;;-142.75;100.00;76688.41;5043923;28;20374;-64
2023/06/27 01:24:11;;;;;;;9.98;1.45;;;;;;;-142.75;100.00;76690.38;5044420;28;20101;-64
2023/06/27 01:26:36;;;;;;;10.82;1.58;;;;;;;-142.75;100.00;76692.34;5044325;28;20420;-65
2023/06/27 01:29:01;;;;;;;5.82;1.77;;;;;;;-142.75;100.00;76686.44;5044895;28;20039;-63
2023/06/27 01:31:40;;;;;;;9.38;1.55;;;;;;;-142.75;100.00;76672.66;5043490;28;20504;-64
2023/06/27 01:34:08;;;;;;;9.60;1.70;;;;;;;-142.75;100.00;76672.66;5044606;28;20021;-63
2023/06/27 01:36:57;;;;;;;9.55;1.80;;;;;;;-142.75;100.00;76649.03;5044678;28;20051;-63
2023/06/27 01:39:28;;;;;;;4.40;1.40;;;;;;;-142.75;100.00;76637.22;5059181;28;20506;-64
2023/06/27 01:41:59;;;;;;;8.38;1.30;;;;;;;-142.75;100.00;76633.28;5064328;28;20145;-64
2023/06/27 01:44:25;;;;;;;8.13;1.60;;;;;;;-142.75;100.00;76643.13;5063914;28;20790;-64
2023/06/27 01:46:52;;;;;;;6.20;1.40;;;;;;;-142.75;100.00;76641.16;5063740;28;20428;-64
2023/06/27 01:49:17;;;;;;;7.25;1.33;;;;;;;-142.75;100.00;76647.06;5063369;28;20028;-64
2023/06/27 01:51:43;;;;;;;7.05;1.70;;;;;;;-142.75;100.00;76641.16;5063687;28;20565;-63
2023/06/27 01:54:08;;;;;;;8.73;2.00;;;;;;;-142.75;100.00;76641.16;5063682;28;20113;-64
2023/06/27 01:56:34;;;;;;;5.90;1.42;;;;;;;-142.75;100.00;76645.09;5063534;28;20048;-64
2023/06/27 01:58:59;;;;;;;9.20;1.67;;;;;;;-142.75;100.00;76649.03;5061906;28;20399;-65
2023/06/27 02:01:25;;;;;;;11.48;1.98;;;;;;;-142.75;100.00;76645.09;5063897;28;20503;-64
2023/06/27 02:03:50;;;;;;;5.93;1.27;;;;;;;-142.75;100.00;76654.94;5063579;28;20090;-64
2023/06/27 02:06:15;;;;;;;5.50;1.52;;;;;;;-142.75;100.00;76651.00;5063830;28;20643;-64
2023/06/27 02:08:41;;;;;;;6.55;1.73;;;;;;;-142.75;100.00;76652.97;5063375;28;20029;-64
2023/06/27 02:11:06;;;;;;;10.43;1.95;;;;;;;-142.75;100.00;76656.91;5063214;28;20483;-64
2023/06/27 02:13:36;;;;;;;6.55;1.92;;;;;;;-142.75;100.00;76660.84;5063253;28;20021;-62
2023/06/27 02:16:02;;;;;;;3.97;1.38;;;;;;;-142.75;100.00;76662.81;5063526;28;20012;-63
2023/06/27 02:18:27;;;;;;;5.40;1.50;;;;;;;-142.75;100.00;76664.78;5063472;28;20182;-63
2023/06/27 02:20:53;;;;;;;8.02;1.60;;;;;;;-142.75;100.00;76660.84;5061855;28;20407;-64
2023/06/27 02:23:18;;;;;;;4.93;1.52;;;;;;;-142.75;100.00;76660.84;5063075;28;20062;-65
2023/06/27 02:25:43;;;;;;;4.47;1.67;;;;;;;-142.75;100.00;76664.78;5063607;28;20411;-64
2023/06/27 02:28:09;;;;;;;8.32;1.60;;;;;;;-142.75;100.00;76654.94;5054759;28;20044;-64
2023/06/27 02:30:37;;;;;;;7.80;1.40;;;;;;;-142.75;100.00;76658.88;5059120;28;20032;-64
2023/06/27 02:33:02;;;;;;;10.95;1.77;;;;;;;-142.75;100.00;76649.03;5048584;28;20017;-63
2023/06/27 02:35:27;;;;;;;7.30;1.98;;;;;;;-142.75;100.00;76649.03;5061305;28;20020;-64
2023/06/27 02:37:53;;;;;;;9.95;1.73;;;;;;;-142.75;100.00;76649.03;5044458;28;20032;-64
2023/06/27 02:40:18;;;;;;;6.78;1.75;;;;;;;-142.75;100.00;76649.03;5043098;28;20067;-64
2023/06/27 02:42:43;;;;;;;6.65;1.52;;;;;;;-142.75;100.00;76649.03;5043412;28;20381;-64
2023/06/27 02:45:09;;;;;;;5.90;1.60;;;;;;;-142.75;100.00;76658.88;5043346;28;20478;-63
2023/06/27 02:47:35;;;;;;;5.43;1.35;;;;;;;-142.75;100.00;76664.78;5041944;28;20029;-63
2023/06/27 02:50:00;;;;;;;4.55;1.50;;;;;;;-142.75;100.00;76668.72;5043218;28;20033;-64
2023/06/27 02:52:25;;;;;;;4.68;1.77;;;;;;;-142.75;100.00;76666.75;5043235;28;20028;-64
2023/06/27 02:54:52;;;;;;;4.50;1.00;;;;;;;-142.75;100.00;76670.69;5043377;28;20029;-64
2023/06/27 02:57:17;;;;;;;6.10;1.67;;;;;;;-142.75;100.00;76674.63;5043242;28;20032;-64
2023/06/27 02:59:43;;;;;;;6.97;1.45;;;;;;;-142.75;100.00;76674.63;5053605;28;20028;-64
2023/06/27 03:02:08;;;;;;;9.27;1.55;;;;;;;-142.75;100.00;76674.63;5062787;28;20029;-64
2023/06/27 03:04:35;;;;;;;7.60;2.00;;;;;;;-142.75;100.00;76684.47;5063047;28;20115;-64
2023/06/27 03:07:01;;;;;;;5.25;1.70;;;;;;;-142.75;100.00;76680.53;5063269;28;20054;-65
2023/06/27 03:09:26;;;;;;;3.85;1.48;;;;;;;-142.75;100.00;76686.44;5064160;28;20024;-64
2023/06/27 03:11:51;;;;;;;4.57;1.50;;;;;;;-142.75;100.00;76688.41;5066733;28;20033;-64
2023/06/27 03:14:18;;;;;;;7.60;1.65;;;;;;;-142.75;100.00;76692.34;5066496;28;20028;-64
2023/06/27 03:16:43;;;;;;;7.03;1.80;;;;;;;-142.75;100.00;76700.22;5066612;28;20023;-64
2023/06/27 03:19:08;;;;;;;10.52;1.67;;;;;;;-142.75;100.00;76696.28;5066592;28;21041;-64
2023/06/27 03:21:34;;;;;;;7.72;1.70;;;;;;;-142.75;100.00;76696.28;5066703;28;20033;-64
2023/06/27 03:23:59;;;;;;;3.85;1.67;;;;;;;-142.75;100.00;76696.28;5066601;28;20087;-63
2023/06/27 03:26:27;;;;;;;5.90;1.33;;;;;;;-142.75;100.00;76698.25;5047489;28;20401;-64
2023/06/27 03:28:54;;;;;;;8.02;1.70;;;;;;;-142.75;100.00;76692.34;5046783;28;20029;-64
2023/06/27 03:31:19;;;;;;;6.28;1.63;;;;;;;-142.75;100.00;76696.28;5046484;28;20119;-64
2023/06/27 03:33:46;;;;;;;7.60;1.65;;;;;;;-142.75;100.00;76698.25;5048656;28;20025;-65
2023/06/27 03:36:11;;;;;;;8.95;1.98;;;;;;;-142.75;100.00;76702.19;5066720;28;20020;-65
2023/06/27 03:38:37;;;;;;;4.80;1.73;;;;;;;-142.75;100.00;76700.22;5066048;28;20031;-64
2023/06/27 03:41:02;;;;;;;9.27;1.63;;;;;;;-142.75;100.00;76704.16;5066196;28;20028;-65
2023/06/27 03:43:27;;;;;;;9.43;2.08;;;;;;;-142.75;100.00;76704.16;5066191;28;20036;-65
2023/06/27 03:45:53;;;;;;;4.28;1.58;;;;;;;-142.75;100.00;76706.13;5065766;28;20110;-65
2023/06/27 03:48:18;;;;;;;8.05;2.00;;;;;;;-142.75;100.00;76704.16;5062590;28;20033;-65
2023/06/27 03:50:43;;;;;;;3.53;1.55;;;;;;;-142.75;100.00;76708.09;5046329;28;20017;-65
2023/06/27 03:53:09;;;;;;;6.28;1.77;;;;;;;-142.75;100.00;76710.06;5046228;28;20031;-65
2023/06/27 03:55:34;;;;;;;3.95;1.40;;;;;;;-142.75;100.00;76712.03;5060167;28;20059;-65
2023/06/27 03:58:00;;;;;;;9.55;1.90;;;;;;;-142.75;100.00;76700.22;5066347;28;20525;-64
2023/06/27 04:00:26;;;;;;;5.32;1.77;;;;;;;-142.75;100.00;76710.06;5066108;28;20016;-64
2023/06/27 04:02:51;;;;;;;6.97;1.65;;;;;;;-142.75;100.00;76717.94;5065620;28;20494;-65
2023/06/27 04:05:16;;;;;;;8.52;1.60;;;;;;;-142.75;100.00;76712.03;5066160;28;20032;-64
2023/06/27 04:07:42;;;;;;;7.97;2.00;;;;;;;-142.75;100.00;76712.03;5065813;28;20027;-65
2023/06/27 04:10:07;;;;;;;4.60;1.60;;;;;;;-142.75;100.00;76710.06;5065637;28;20064;-64
2023/06/27 04:12:33;;;;;;;6.45;1.60;;;;;;;-142.75;100.00;76714.00;5053363;28;20025;-64
2023/06/27 04:14:58;;;;;;;9.05;2.10;;;;;;;-142.75;100.00;76714.00;5045940;28;20020;-65
2023/06/27 04:17:23;;;;;;;6.80;1.70;;;;;;;-142.75;100.00;76712.03;5055188;28;20028;-65
2023/06/27 04:19:49;;;;;;;9.43;2.00;;;;;;;-142.75;100.00;76714.00;5064780;28;20025;-65
2023/06/27 04:22:14;;;;;;;7.85;2.22;;;;;;;-142.75;100.00;76715.97;5058364;28;20036;-65
2023/06/27 04:24:39;;;;;;;7.07;2.17;;;;;;;-142.75;100.00;76723.84;5045606;28;20116;-64
2023/06/27 04:27:09;;;;;;;5.75;1.80;;;;;;;-142.75;100.00;76721.88;5045648;28;20033;-64
2023/06/27 04:29:35;;;;;;;6.82;1.70;;;;;;;-142.75;100.00;76725.81;5045029;28;20412;-65
2023/06/27 04:32:00;;;;;;;9.38;2.00;;;;;;;-142.75;100.00;76723.84;5046402;28;20040;-65
2023/06/27 04:34:25;;;;;;;8.57;1.92;;;;;;;-142.75;100.00;76727.78;5065487;28;20078;-65
2023/06/27 04:36:51;;;;;;;6.65;1.55;;;;;;;-142.75;100.00;76735.66;5065328;28;20029;-65
2023/06/27 04:39:16;;;;;;;8.23;1.80;;;;;;;-142.75;100.00;76731.72;5063000;28;20033;-64
2023/06/27 04:41:41;;;;;;;7.75;1.60;;;;;;;-142.75;100.00;76741.56;5064365;28;20104;-64
2023/06/27 04:44:07;;;;;;;5.95;2.35;;;;;;;-142.75;100.00;76745.50;5064243;28;20060;-64
2023/06/27 04:46:32;;;;;;;5.85;2.00;;;;;;;-142.75;100.00;76753.38;5063824;28;20020;-64
2023/06/27 04:48:58;;;;;;;6.50;2.55;;;;;;;-142.75;100.00;76757.31;5064371;28;20032;-64
2023/06/27 04:51:28;;;;;;;8.55;1.52;;;;;;;-142.75;100.00;76763.22;5064315;28;20468;-64
2023/06/27 04:53:53;;;;;;;4.75;1.58;;;;;;;-142.75;100.00;76767.16;5063576;28;20028;-64
2023/06/27 04:56:19;;;;;;;6.45;1.65;;;;;;;-142.75;100.00;76761.25;5064600;28;20032;-64
2023/06/27 04:58:44;;;;;;;4.97;1.30;;;;;;;-142.75;100.00;76767.16;5063752;28;20488;-64
2023/06/27 05:01:10;;;;;;;7.00;2.33;;;;;;;-142.75;100.00;76755.34;5063253;28;20036;-64
2023/06/27 05:03:37;;;;;;;6.65;2.00;;;;;;;-142.75;100.00;76759.28;5063717;28;20032;-64
2023/06/27 05:06:03;;;;;;;6.28;2.20;;;;;;;-142.75;100.00;76743.53;5064523;28;20149;-64
2023/06/27 05:08:29;;;;;;;6.25;2.03;;;;;;;-142.75;100.00;76743.53;5063475;28;20031;-64
2023/06/27 05:10:54;;;;;;;7.38;1.60;;;;;;;-142.75;100.00;76739.59;5063140;28;20024;-64
2023/06/27 05:13:19;;;;;;;6.70;1.45;;;;;;;-142.75;100.00;76719.91;5043637;28;20025;-65
2023/06/27 05:15:45;;;;;;;6.22;1.75;;;;;;;-142.75;100.00;76704.16;5042265;28;20119;-64
2023/06/27 05:18:14;;;;;;;4.75;1.38;;;;;;;-142.75;100.00;76696.28;5043825;28;20124;-64
2023/06/27 05:20:40;;;;;;;8.25;1.60;;;;;;;-142.75;100.00;76688.41;5039611;28;20037;-65
2023/06/27 05:23:05;;;;;;;6.60;1.30;;;;;;;-142.75;100.00;76700.22;5045482;28;20036;-64
2023/06/27 05:25:32;;;;;;;5.10;1.13;;;;;;;-142.75;100.00;76672.66;5045607;28;20078;-63
2023/06/27 05:27:57;;;;;;;4.65;1.33;;;;;;;-142.75;100.00;76664.78;5045804;28;20028;-64
2023/06/27 05:30:23;;;;;;;4.65;1.02;;;;;;;-142.75;100.00;76664.78;5042173;28;20514;-64
2023/06/27 05:32:48;;;;;;;5.55;1.08;;;;;;;-142.75;100.00;76664.78;5038220;28;20124;-64
2023/06/27 05:35:14;;;;;;;5.22;1.48;;;;;;;-142.75;100.00;76641.16;5045704;28;20079;-64
2023/06/27 05:37:39;;;;;;;3.55;1.17;;;;;;;-142.75;100.00;76633.28;5046229;28;20041;-64
2023/06/27 05:40:05;;;;;;;6.78;1.58;;;;;;;-142.75;100.00;76611.63;5045965;28;20032;-65
2023/06/27 05:42:31;;;;;;;5.00;1.13;;;;;;;-142.75;100.00;76603.75;5045887;28;20098;-64
2023/06/27 05:44:56;;;;;;;3.20;1.00;;;;;;;-142.75;100.00;76609.66;5045984;28;20043;-64
2023/06/27 05:47:21;;;;;;;4.78;1.50;;;;;;;-142.75;100.00;76593.91;5045711;28;20025;-64
2023/06/27 05:49:48;;;;;;;3.97;1.30;;;;;;;-142.75;100.00;76586.03;5045667;28;20020;-65
2023/06/27 05:52:14;;;;;;;4.72;1.00;;;;;;;-142.75;100.00;76582.09;5045863;28;20091;-64
2023/06/27 05:54:41;;;;;;;5.72;1.30;;;;;;;-142.75;100.00;76562.41;5045471;28;20032;-65
2023/06/27 05:57:07;;;;;;;6.95;1.42;;;;;;;-142.75;100.00;76550.59;5043874;28;20021;-64
2023/06/27 05:59:34;;;;;;;3.58;1.00;;;;;;;-142.75;100.00;76536.84;5045721;28;20484;-63
2023/06/27 06:02:00;;;;;;;4.90;0.80;;;;;;;-142.75;100.00;76534.84;5045856;28;20029;-63
2023/06/27 06:04:25;;;;;;;4.68;1.25;;;;;;;-142.75;100.00;76534.84;5045355;28;20029;-63
2023/06/27 06:06:50;;;;;;;2.47;0.93;;;;;;;-142.75;100.00;76536.84;5045352;28;20032;-63
2023/06/27 06:09:16;;;;;;;5.80;1.05;;;;;;;-142.75;100.00;76534.84;5045250;28;20090;-63
2023/06/27 06:11:41;;;;;;;3.67;1.10;;;;;;;-142.75;100.00;76538.78;5045535;28;20025;-63
2023/06/27 06:14:06;;;;;;;2.58;0.73;;;;;;;-142.75;100.00;76519.13;5045259;28;20471;-63
2023/06/27 06:16:33;;;;;;;3.95;1.00;;;;;;;-142.75;100.00;76509.28;5045310;28;20016;-64
2023/06/27 06:19:03;;;;;;;2.75;0.70;;;;;;;-142.75;100.00;76495.50;5044721;28;20112;-64
2023/06/27 06:21:30;;;;;;;4.10;0.90;;;;;;;-142.75;100.00;76503.38;5043639;28;20052;-63
2023/06/27 06:23:55;;;;;;;7.40;1.15;;;;;;;-142.75;100.00;76499.44;5039168;28;21598;-64
2023/06/27 06:26:21;;;;;;;5.03;1.05;;;;;;;-142.75;100.00;76475.81;5041463;28;20111;-64
2023/06/27 06:28:46;;;;;;;3.35;0.80;;;;;;;-142.75;100.00;76473.84;5041874;28;20052;-63
2023/06/27 06:31:14;;;;;;;4.85;1.52;;;;;;;-142.75;100.00;76467.94;5043758;28;20393;-63
2023/06/27 06:33:40;;;;;;;6.70;1.08;;;;;;;-142.75;100.00;76460.06;5041899;28;20033;-63
2023/06/27 06:36:06;;;;;;;4.78;1.17;;;;;;;-142.75;100.00;76477.78;5043128;28;20078;-63
2023/06/27 06:38:31;;;;;;;7.80;1.50;;;;;;;-142.75;100.00;76448.25;5043423;28;20069;-64
2023/06/27 06:40:57;;;;;;;3.70;1.00;;;;;;;-142.75;100.00;76434.47;5042250;28;20040;-64
2023/06/27 06:43:25;;;;;;;3.33;0.93;;;;;;;-142.75;100.00;76410.84;5040362;28;20052;-63
2023/06/27 06:45:54;;;;;;;6.45;1.05;;;;;;;-142.75;100.00;76401.00;5042632;28;20021;-63
2023/06/27 06:48:20;;;;;;;4.65;0.93;;;;;;;-142.75;100.00;76397.06;5042580;28;20040;-64
2023/06/27 06:50:46;;;;;;;2.45;0.65;;;;;;;-142.75;100.00;76408.88;5039530;28;20033;-62
2023/06/27 06:53:12;;;;;;;2.05;0.80;;;;;;;-142.75;100.00;76412.81;5044423;28;20150;-64
2023/06/27 06:55:37;;;;;;;3.65;0.80;;;;;;;-142.75;100.00;76430.53;5035092;28;20045;-64
2023/06/27 06:58:04;;;;;;;3.50;0.70;;;;;;;-142.75;100.00;76428.56;5039858;28;20369;-64
2023/06/27 07:00:29;;;;;;;3.13;0.73;;;;;;;-142.75;100.00;76412.81;5042270;28;20033;-64
2023/06/27 07:02:55;;;;;;;3.10;0.85;;;;;;;-142.75;100.00;76402.97;5043149;28;20053;-63
2023/06/27 07:05:20;;;;;;;1.50;0.70;;;;;;;-142.75;100.00;76391.16;5044110;28;20039;-64
2023/06/27 07:07:45;;;;;;;3.42;0.60;;;;;;;-142.75;100.00;76377.38;5063835;28;20025;-64
2023/06/27 07:10:11;;;;;;;3.10;0.60;;;;;;;-142.75;100.00;76373.44;5063969;28;20048;-64
2023/06/27 07:12:36;;;;;;;4.85;1.00;;;;;;;-142.75;100.00;76365.56;5052524;28;20024;-65
2023/06/27 07:15:02;;;;;;;7.38;0.80;;;;;;;-142.75;100.00;76330.16;5044525;28;20085;-63
2023/06/27 07:17:27;;;;;;;2.58;0.70;;;;;;;-142.75;100.00;76332.13;5044943;28;20105;-64
2023/06/27 07:19:53;;;;;;;4.28;1.02;;;;;;;-142.75;100.00;76351.81;5043089;28;20449;-63
2023/06/27 07:22:18;;;;;;;4.03;0.70;;;;;;;-142.75;100.00;76359.66;5044908;28;20506;-64
2023/06/27 07:24:44;;;;;;;5.30;0.80;;;;;;;-142.75;100.00;76377.38;5044130;28;20036;-63
2023/06/27 07:27:09;;;;;;;1.35;0.65;;;;;;;-142.75;100.00;76385.25;5059310;28;20037;-63
2023/06/27 07:29:35;;;;;;;3.45;0.70;;;;;;;-142.75;100.00;76395.09;5064657;28;20048;-64
2023/06/27 07:32:01;;;;;;;5.88;1.08;;;;;;;-142.75;99.58;76395.09;5062895;28;20050;-67
2023/06/27 07:34:26;;;;;;;6.25;0.70;;;;;;;-142.75;100.00;76391.16;5043705;28;20482;-61
2023/06/27 07:36:52;;;;;;;3.38;0.68;;;;;;;-142.75;99.39;76397.06;5042643;28;20013;-64
2023/06/27 07:39:17;;;;;;;3.30;0.73;;;;;;;-142.75;96.32;76406.91;5043776;28;20029;-63
2023/06/27 07:41:43;;;;;;;2.10;0.55;;;;;;;-142.75;97.16;76391.16;5044182;28;20027;-63
2023/06/27 07:44:08;;;;;;;6.15;0.90;;;;;;;-142.75;97.09;76399.03;5044294;28;20103;-65
2023/06/27 07:46:33;;;;;;;4.50;1.02;;;;;;;-142.75;100.00;76389.19;5044582;28;20603;-65
2023/06/27 07:48:59;;;;;;;1.65;0.70;;;;;;;-142.75;97.76;76397.06;5044844;28;20021;-64
2023/06/27 07:51:26;;;;;;;3.00;0.70;;;;;;;-142.75;96.01;76393.13;5044562;28;20513;-64
2023/06/27 07:53:51;;;;;;;3.42;0.55;;;;;;;-142.75;95.91;76393.13;5044354;28;20039;-64
2023/06/27 07:56:17;;;;;;;2.40;0.65;;;;;;;-142.75;97.75;76391.16;5046785;28;20020;-64
2023/06/27 07:58:44;;;;;;;2.35;0.60;;;;;;;-142.75;91.49;76406.91;5048310;28;20023;-64
2023/06/27 08:01:10;;;;;;;3.85;0.60;;;;;;;-142.75;92.84;76399.03;5048125;28;20079;-64
2023/06/27 08:03:35;;;;;;;2.08;0.43;;;;;;;-142.75;90.36;76408.88;5047778;28;20024;-64
2023/06/27 08:06:03;;;;;;;2.95;0.65;;;;;;;-142.75;93.41;76391.16;5047979;28;20456;-64
2023/06/27 08:08:29;;;;;;;6.40;0.70;;;;;;;-142.75;91.54;76420.69;5048395;28;20512;-64
2023/06/27 08:10:56;;;;;;;3.30;0.80;;;;;;;-142.75;94.06;76399.03;5047933;28;20033;-64
2023/06/27 08:13:22;;;;;;;5.43;0.70;;;;;;;-142.75;91.44;76402.97;5047861;28;20074;-64
2023/06/27 08:15:47;;;;;;;3.00;0.70;;;;;;;-142.75;90.26;76416.75;5047745;28;20024;-63
2023/06/27 08:18:13;;;;;;;5.10;1.27;;;;;;;-142.75;90.20;76408.88;5047888;28;20609;-64
2023/06/27 08:20:38;;;;;;;3.95;0.60;;;;;;;-142.75;88.06;76406.91;5047576;28;20540;-64
2023/06/27 08:23:03;;;;;;;2.25;0.50;;;;;;;-142.75;88.46;76404.94;5047543;28;20439;-64
2023/06/27 08:25:29;;;;;;;1.83;0.40;;;;;;;-142.75;88.13;76402.97;5048356;28;20027;-64
2023/06/27 08:27:54;;;;;;;4.57;0.90;;;;;;;-142.75;88.92;76404.94;5048106;28;20052;-64
2023/06/27 08:30:22;;;;;;;2.60;0.65;;;;;;;-142.75;91.43;76399.03;5047951;28;20078;-63
2023/06/27 08:32:47;;;;;;;3.90;0.88;;;;;;;-142.75;89.30;76401.00;5047595;28;20078;-64
2023/06/27 08:35:13;;;;;;;2.70;0.60;;;;;;;-142.75;89.83;76399.03;5047438;28;20462;-64
2023/06/27 08:37:38;;;;;;;10.27;1.33;;;;;;;-142.75;90.00;76416.75;5046340;28;20017;-64
2023/06/27 08:40:04;;;;;;;4.15;0.93;;;;;;;-142.75;89.61;76414.78;5047257;28;20051;-63
2023/06/27 08:42:32;;;;;;;6.35;0.98;;;;;;;-142.75;90.37;76408.88;5047454;28;20059;-63
2023/06/27 08:45:01;;;;;;;4.95;0.82;;;;;;;-142.75;90.41;76408.88;5047093;28;20016;-63
2023/06/27 08:47:29;;;;;;;3.63;0.70;;;;;;;-142.75;89.80;76406.91;5047512;28;20016;-64
2023/06/27 08:50:03;;;;;;;4.57;0.65;;;;;;;-142.75;94.08;76389.19;5047122;28;20082;-64
2023/06/27 08:52:30;;;;;;;4.82;0.77;;;;;;;-142.75;90.13;76412.81;5047149;28;20052;-64
2023/06/27 08:54:57;;;;;;;1.98;0.52;;;;;;;-142.75;88.03;76416.75;5047018;28;20107;-64
2023/06/27 08:57:27;;;;;;;4.63;0.80;;;;;;;-142.75;86.96;76416.75;5047210;28;20054;-63
2023/06/27 08:59:55;;;;;;;3.53;0.60;;;;;;;-142.75;86.74;76418.72;5046034;28;20032;-64
2023/06/27 09:02:21;;;;;;;5.53;0.55;;;;;;;-142.75;85.90;76416.75;5046926;28;20598;-64
2023/06/27 09:04:47;;;;;;;4.35;0.95;;;;;;;-142.75;87.05;76422.66;5046601;28;20029;-64
2023/06/27 09:07:13;;;;;;;1.30;0.50;;;;;;;-142.75;87.44;76418.72;5046952;28;20023;-64
2023/06/27 09:09:38;;;;;;;4.50;0.63;;;;;;;-142.75;87.79;76416.75;5046713;28;20066;-64
2023/06/27 09:12:06;;;;;;;2.17;0.75;;;;;;;-142.75;84.87;76434.47;5046788;28;20075;-63
2023/06/27 09:14:31;;;;;;;4.35;1.02;;;;;;;-142.75;87.92;76420.69;5046634;28;20423;-65
2023/06/27 09:16:57;;;;;;;7.65;0.82;;;;;;;-142.75;87.45;76428.56;5045587;28;20016;-64
2023/06/27 09:19:23;;;;;;;2.67;0.60;;;;;;;-142.75;87.99;76416.75;5045292;28;20649;-64
2023/06/27 09:21:50;;;;;;;4.15;0.80;;;;;;;-142.75;89.09;76420.69;5046358;28;20028;-65
2023/06/27 09:24:22;;;;;;;2.80;0.90;;;;;;;-142.75;86.82;76410.84;5046308;28;20086;-64
2023/06/27 09:26:48;;;;;;;4.88;0.70;;;;;;;-142.75;91.68;76399.03;5046421;28;20025;-64
2023/06/27 09:29:13;;;;;;;2.85;0.77;;;;;;;-142.75;88.42;76401.00;5046675;28;20027;-64
2023/06/27 09:31:38;;;;;;;4.10;0.57;;;;;;;-142.75;88.90;76397.06;5046372;28;20033;-64
2023/06/27 09:34:05;;;;;;;2.58;0.63;;;;;;;-142.75;87.14;76395.09;5046087;28;20116;-63
2023/06/27 09:36:32;;;;;;;4.30;0.57;;;;;;;-142.75;85.23;76381.31;5046806;28;20052;-64
2023/06/27 09:39:03;;;;;;;3.90;0.77;;;;;;;-142.75;86.50;76353.78;5046734;28;20060;-64
2023/06/27 09:41:46;;;;;;;7.47;0.80;;;;;;;-142.75;89.29;76310.47;5046429;28;20039;-64
2023/06/27 09:44:17;;;;;;;11.57;1.42;;;;;;;-142.75;92.33;76278.97;5046014;28;20013;-64
2023/06/27 09:46:44;;;;;;;1.50;0.73;;;;;;;-142.75;87.17;76255.34;5045030;28;20031;-64
2023/06/27 09:49:09;;;;;;;1.48;0.60;;;;;;;-142.75;84.27;76259.28;5046190;28;20060;-64
2023/06/27 09:51:36;;;;;;;4.30;1.02;;;;;;;-142.75;83.29;76247.47;5044665;28;20016;-64
2023/06/27 09:54:02;;;;;;;9.05;0.90;;;;;;;-142.75;84.06;76247.47;5044664;28;20091;-65
2023/06/27 09:56:31;;;;;;;3.50;0.70;;;;;;;-142.75;86.08;76237.63;5046230;28;20464;-64
2023/06/27 09:59:06;;;;;;;4.20;0.95;;;;;;;-142.75;86.01;76223.84;5044894;28;20016;-64
2023/06/27 10:01:35;;;;;;;6.87;1.40;;;;;;;-142.75;83.25;76219.91;5045918;28;20027;-63
2023/06/27 10:04:00;;;;;;;2.13;0.70;;;;;;;-142.75;81.31;76231.72;5045749;28;20017;-63
2023/06/27 10:06:25;;;;;;;4.00;0.80;;;;;;;-142.75;78.14;76257.31;5045912;28;20017;-64
2023/06/27 10:08:51;;;;;;;4.88;0.98;;;;;;;-142.75;78.78;76257.31;5046191;28;20154;-64
2023/06/27 10:11:17;;;;;;;3.38;0.70;;;;;;;-142.75;79.84;76231.72;5045461;28;20073;-64
2023/06/27 10:13:43;;;;;;;5.10;0.88;;;;;;;-142.75;79.65;76227.78;5045266;28;20033;-64
2023/06/27 10:16:09;;;;;;;8.50;0.93;;;;;;;-142.75;78.04;76219.91;5045645;28;20024;-64
2023/06/27 10:18:34;;;;;;;7.30;0.60;;;;;;;-142.75;79.44;76196.31;5044718;28;20031;-64
2023/06/27 10:21:00;;;;;;;5.05;0.70;;;;;;;-142.75;75.16;76215.97;5045691;28;20096;-63
2023/06/27 10:23:26;;;;;;;3.13;0.52;;;;;;;-142.75;73.92;76241.56;5045333;28;20388;-64
2023/06/27 10:25:52;;;;;;;2.17;0.50;;;;;;;-142.75;79.22;76200.25;5045142;28;20326;-64
2023/06/27 10:28:19;;;;;;;1.45;0.80;;;;;;;-142.75;79.17;76180.56;5045553;28;20044;-64
2023/06/27 10:30:46;;;;;;;2.40;0.50;;;;;;;-142.75;78.62;76172.69;5045283;28;20075;-64
2023/06/27 10:33:41;;;;;;;2.00;0.60;;;;;;;-142.75;79.37;76151.03;5045044;28;20056;-64
2023/06/27 10:36:09;;;;;;;2.70;0.85;;;;;;;-142.75;79.07;76153.00;5044665;28;20063;-63
2023/06/27 10:38:39;;;;;;;1.70;0.50;;;;;;;-142.75;78.18;76133.31;5045777;28;20024;-63
2023/06/27 10:41:09;;;;;;;2.05;0.65;;;;;;;-142.75;74.93;76166.78;5045388;28;20013;-64
2023/06/27 10:43:40;;;;;;;2.47;0.70;;;;;;;-142.75;72.65;76160.88;5045085;28;20590;-64
2023/06/27 10:46:30;;;;;;;1.15;0.50;;;;;;;-142.75;74.78;76160.88;5061788;28;20067;-64
2023/06/27 10:49:04;;;;;;;2.08;0.57;;;;;;;-142.75;74.75;76170.72;5064990;28;20471;-63
2023/06/27 10:51:41;;;;;;;3.95;0.63;;;;;;;-142.75;76.44;76164.81;5065421;28;20540;-64
2023/06/27 10:54:11;;;;;;;1.90;0.40;;;;;;;-142.75;76.05;76164.81;5064742;28;20025;-64
2023/06/27 10:56:45;;;;;;;3.05;0.70;;;;;;;-142.75;77.34;76166.78;5064963;28;20009;-63
2023/06/27 10:59:21;;;;;;;4.03;0.73;;;;;;;-142.75;74.78;76184.50;5065321;28;20074;-63
2023/06/27 11:01:52;;;;;;;3.95;0.70;;;;;;;-142.75;76.98;76194.34;5064940;28;20430;-64
2023/06/27 11:04:25;;;;;;;2.90;1.08;;;;;;;-142.75;76.85;76200.25;5063003;28;20107;-63
2023/06/27 11:06:59;;;;;;;2.05;0.70;;;;;;;-142.75;78.57;76180.56;5045516;28;20037;-64
2023/06/27 11:09:24;;;;;;;3.70;0.57;;;;;;;-142.75;79.92;76198.28;5045039;28;20129;-64